Ypsilanti, ND

7:09 PM CDT on July 07, 2015 (GMT -0500)
Jamestown Municipal | | Change Station
CLOSE
Current Station
Airport
Location: Jamestown,
Elevation: 1499 ft
Nearby Weather Stations

Elev 1499 ft 46.93 °N, 98.67 °W | Updated 13 minutes ago

Clear
Clear
71 °F
Feels Like 71 °F
N
12
Wind Variable Wind from South

Today
High -- | Low -- °F
--% Chance of Precip.
Yesterday
High -- | Low -- °F
Precip. -- in
5:47 AM 9:29 PM
Waning Gibbous, 60% visible
Pressure 30.04 in
Visibility 10.0 miles
Clouds Clear
Dew Point 48 °F
Humidity 44%
Rainfall 0.00 in
Snow Depth Not available.
UV 2 out of 12
Pollen 4.20 out of 12
Air Quality Not available.
Flu Activity Not available.
METAR KJMS 072356Z AUTO 19010KT 10SM CLR 22/09 A3004 RMK AO2 SLP172 T02170089 10228 20200 58019

More Conditions Fewer Conditions

Pressure 30.04 in
Visibility 10.0 miles
Clouds Clear
Dew Point 48 °F
Humidity 44%
Rainfall 0.00 in
Snow Depth Not available.
UV 2 out of 12
Pollen 4.20 out of 12
Air Quality Not available.
Flu Activity Not available.
METAR KJMS 072356Z AUTO 19010KT 10SM CLR 22/09 A3004 RMK AO2 SLP172 T02170089 10228 20200 58019

More Conditions Fewer Conditions

10-Day Weather Forecast

×

Almanac

Astronomy

Jul. 07, 2015 Rise Set
Actual Time
Civil Twilight
Nautical Twilight
Astronomical Twilight
Moon
Length of Visible Light
Length of Day
Tomorrow will be .
, % of the Moon is Illuminated

Today's Extremes

State Highs State Lows

Community

WunderPhotos

Upload Photos

1,835,961 photos uploaded!

WunderBlogs® & News

Nearby

Air Quality

  Air Quality AQ Index Pollutant
Not available.

Snow Depth

Station Depth Elevation

Earthquake Activity

City Distance Mag. Time & Date
Minimum magnitude displayed is 2.5.

Coastal Water Temperatures

Place Temperature

Stations

Nearby Weather Stations

Station Location Temp. Windchill Dew Point Humidity Wind Precip. Elev Updated Type